Time;durP1;ratioP1;P1;durP2;ratioP2;P2;SDS_P1;SDS_P2;PMS_P1;PMS_P2;Temp;Humidity;BMP_temperature;BMP_pressure;BME280_temperature;BME280_humidity;BME280_pressure;Samples;Min_cycle;Max_cycle;Signal;HPM_P1;HPM_P2
2022/05/12 00:02:59;;;;;;;0.88;0.88;;;;;;;12.21;90.19;99837.00;8527182;33;20512;-77
2022/05/12 00:08:02;;;;;;;0.60;0.60;;;;;;;12.32;89.54;99837.69;8520184;33;20566;-75
2022/05/12 00:13:08;;;;;;;0.40;0.40;;;;;;;11.94;90.90;99850.28;8542416;33;20467;-75
2022/05/12 00:18:11;;;;;;;0.30;0.30;;;;;;;12.51;88.50;99860.16;8548940;33;20136;-75
2022/05/12 00:23:16;;;;;;;1.35;1.25;;;;;;;12.49;88.06;99872.91;8523321;33;20888;-76
2022/05/12 00:28:24;;;;;;;0.22;0.22;;;;;;;12.52;87.30;99880.69;8544284;33;20168;-76
2022/05/12 00:33:28;;;;;;;0.20;0.20;;;;;;;12.48;86.22;99882.84;8522416;33;20156;-78
2022/05/12 00:38:31;;;;;;;0.40;0.40;;;;;;;12.41;86.56;99887.13;8558727;33;20498;-76
2022/05/12 00:43:48;;;;;;;0.50;0.50;;;;;;;12.32;86.73;99890.72;8550512;33;20441;-75
2022/05/12 00:48:54;;;;;;;0.73;0.73;;;;;;;12.56;85.83;99901.81;8543517;33;20410;-75
2022/05/12 00:54:01;;;;;;;2.13;0.65;;;;;;;12.45;86.00;99918.16;8542114;33;20446;-75
2022/05/12 00:59:11;;;;;;;4.47;1.10;;;;;;;12.13;87.24;99924.75;8564509;33;20446;-75
2022/05/12 01:04:15;;;;;;;1.27;1.23;;;;;;;12.41;86.12;99930.22;8550985;33;20538;-75
2022/05/12 01:09:18;;;;;;;0.28;0.28;;;;;;;12.23;87.08;99953.47;8514128;33;20409;-75
2022/05/12 01:14:22;;;;;;;1.17;1.17;;;;;;;12.39;86.27;99973.44;8542312;33;20148;-76
2022/05/12 01:19:29;;;;;;;0.85;0.60;;;;;;;12.49;85.66;99986.06;8543513;33;20547;-75
2022/05/12 01:24:38;;;;;;;0.77;0.77;;;;;;;12.33;85.16;99994.75;8541520;33;20949;-75
2022/05/12 01:29:41;;;;;;;19.20;1.23;;;;;;;12.11;85.80;100042.50;8560395;33;20418;-75
2022/05/12 01:34:45;;;;;;;0.60;0.60;;;;;;;12.37;84.86;100036.56;8561431;33;20437;-75
2022/05/12 01:39:50;;;;;;;0.30;0.30;;;;;;;12.57;81.82;100057.06;8567586;33;20161;-75
2022/05/12 01:44:53;;;;;;;0.45;0.45;;;;;;;11.79;75.41;100077.75;8565531;33;20209;-75
2022/05/12 01:49:56;;;;;;;0.65;0.65;;;;;;;10.99;74.57;100087.53;8548403;33;20152;-75
2022/05/12 01:55:00;;;;;;;0.30;0.30;;;;;;;11.05;73.51;100105.84;8540302;33;20160;-75
2022/05/12 02:00:06;;;;;;;0.60;0.60;;;;;;;11.25;72.96;100114.00;8557639;33;20460;-75
2022/05/12 02:05:12;;;;;;;0.30;0.30;;;;;;;11.22;72.48;100127.72;8530093;33;20440;-75
2022/05/12 02:10:21;;;;;;;7.03;1.48;;;;;;;11.09;73.40;100144.03;8556063;33;20996;-75
2022/05/12 02:15:25;;;;;;;0.25;0.25;;;;;;;10.95;73.13;100158.66;8563272;33;20145;-75
2022/05/12 02:20:28;;;;;;;0.40;0.40;;;;;;;10.93;72.68;100170.53;8571735;33;20660;-76
2022/05/12 02:25:32;;;;;;;0.40;0.40;;;;;;;10.89;73.21;100174.44;8543914;33;20149;-75
2022/05/12 02:30:36;;;;;;;0.30;0.30;;;;;;;10.68;73.14;100186.06;8556395;33;20433;-76
2022/05/12 02:35:40;;;;;;;0.95;0.95;;;;;;;10.93;72.61;100197.41;8547067;33;20273;-75
2022/05/12 02:40:45;;;;;;;1.00;1.00;;;;;;;10.43;74.42;100202.53;8543942;33;20422;-75
2022/05/12 02:45:48;;;;;;;0.38;0.38;;;;;;;10.56;73.83;100211.28;8546531;33;20136;-75
2022/05/12 02:50:51;;;;;;;0.35;0.35;;;;;;;10.52;73.78;100218.72;8548232;33;20129;-76
2022/05/12 02:55:56;;;;;;;0.30;0.30;;;;;;;10.53;72.77;100217.75;8517154;33;20524;-75
2022/05/12 03:00:59;;;;;;;0.32;0.32;;;;;;;10.44;72.16;100229.25;8548987;33;20156;-75
2022/05/12 03:06:02;;;;;;;0.20;0.20;;;;;;;10.42;71.86;100236.56;8547565;33;20629;-76
2022/05/12 03:11:06;;;;;;;0.28;0.28;;;;;;;10.33;71.69;100248.09;8547367;33;20641;-75
2022/05/12 03:16:10;;;;;;;0.22;0.22;;;;;;;10.07;72.24;100261.81;8516570;33;20577;-75
2022/05/12 03:21:14;;;;;;;0.30;0.30;;;;;;;10.06;71.64;100269.97;8535111;33;20145;-75
2022/05/12 03:26:18;;;;;;;0.30;0.30;;;;;;;10.12;71.53;100264.09;8554018;28;20246;-73
2022/05/12 03:31:21;;;;;;;0.28;0.28;;;;;;;10.05;70.98;100276.31;8546229;33;20443;-73
2022/05/12 03:36:25;;;;;;;0.75;0.75;;;;;;;9.99;71.27;100288.41;8553907;33;20412;-73
2022/05/12 03:41:29;;;;;;;0.30;0.30;;;;;;;9.87;71.39;100292.94;8563293;33;20247;-73
2022/05/12 03:46:32;;;;;;;0.30;0.30;;;;;;;9.43;73.58;100301.72;8528215;33;20221;-73
2022/05/12 03:51:35;;;;;;;0.28;0.28;;;;;;;9.58;73.43;100313.13;8548420;33;20240;-73
2022/05/12 03:56:40;;;;;;;0.30;0.30;;;;;;;9.49;73.33;100315.53;8539030;33;21050;-73
2022/05/12 04:01:43;;;;;;;0.55;0.55;;;;;;;9.39;73.05;100322.56;8529372;33;20147;-73
2022/05/12 04:06:46;;;;;;;0.30;0.30;;;;;;;9.43;73.13;100331.22;8520148;33;20143;-73
2022/05/12 04:11:50;;;;;;;0.30;0.30;;;;;;;9.29;73.76;100351.06;8531132;33;20159;-73
2022/05/12 04:16:53;;;;;;;0.30;0.30;;;;;;;9.44;72.96;100360.63;8558079;33;20160;-73
2022/05/12 04:21:56;;;;;;;1.88;0.82;;;;;;;9.45;73.12;100373.03;8544743;33;20544;-73
2022/05/12 04:27:01;;;;;;;0.32;0.32;;;;;;;9.51;73.20;100366.34;8560281;33;20484;-73
2022/05/12 04:32:05;;;;;;;0.60;0.60;;;;;;;9.45;73.72;100380.22;8502498;33;20577;-73
2022/05/12 04:37:08;;;;;;;0.30;0.30;;;;;;;9.58;73.07;100382.84;8527875;33;20425;-72
2022/05/12 04:42:13;;;;;;;0.40;0.40;;;;;;;9.62;73.37;100379.78;8536758;33;20444;-73
2022/05/12 04:47:16;;;;;;;0.40;0.40;;;;;;;9.38;74.07;100392.38;8546819;33;20378;-72
2022/05/12 04:52:19;;;;;;;0.28;0.28;;;;;;;9.55;73.76;100405.38;8559127;33;20418;-73
2022/05/12 04:57:24;;;;;;;0.30;0.30;;;;;;;9.75;73.57;100406.53;8541177;33;20250;-72
2022/05/12 05:02:30;;;;;;;0.60;0.60;;;;;;;9.71;73.37;100416.66;8518939;33;20421;-73
2022/05/12 05:07:33;;;;;;;5.10;1.90;;;;;;;9.90;73.04;100420.59;8561696;33;21012;-73
2022/05/12 05:12:38;;;;;;;3.55;1.52;;;;;;;10.01;73.08;100428.69;8516910;33;20412;-73
2022/05/12 05:17:41;;;;;;;3.40;1.73;;;;;;;10.33;71.61;100444.09;8517251;33;20555;-73
2022/05/12 05:22:45;;;;;;;5.57;1.83;;;;;;;10.20;72.21;100446.03;8553912;33;20423;-73
2022/05/12 05:27:54;;;;;;;5.15;1.73;;;;;;;10.59;71.25;100458.13;8557865;33;20374;-73
2022/05/12 05:32:58;;;;;;;4.57;1.80;;;;;;;10.30;71.59;100466.66;8519795;33;20585;-72
2022/05/12 05:38:02;;;;;;;3.88;2.22;;;;;;;10.77;71.15;100466.53;8543715;33;20421;-74
2022/05/12 05:43:07;;;;;;;4.30;1.70;;;;;;;10.42;72.09;100480.94;8544908;33;20960;-72
2022/05/12 05:48:10;;;;;;;3.90;2.50;;;;;;;10.39;71.72;100494.63;8529534;33;20413;-72
2022/05/12 05:53:25;;;;;;;3.90;2.13;;;;;;;10.66;71.07;100510.38;8521181;33;20934;-72
2022/05/12 05:58:30;;;;;;;6.43;2.88;;;;;;;10.80;70.47;100517.34;8562642;33;20431;-72
2022/05/12 06:03:33;;;;;;;4.10;1.55;;;;;;;10.49;70.80;100529.66;8552709;33;20585;-72
2022/05/12 06:08:36;;;;;;;4.15;1.88;;;;;;;10.86;69.86;100532.13;8537742;33;21211;-73
2022/05/12 06:13:41;;;;;;;5.00;1.88;;;;;;;11.41;69.35;100536.63;8551832;33;20431;-73
2022/05/12 06:18:44;;;;;;;4.00;1.85;;;;;;;11.07;69.19;100538.47;8522261;33;20493;-72
2022/05/12 06:23:46;;;;;;;6.22;2.35;;;;;;;11.21;69.05;100532.00;8519306;33;20414;-72
2022/05/12 06:28:51;;;;;;;4.47;2.20;;;;;;;11.28;68.21;100552.03;8523910;33;20419;-73
2022/05/12 06:33:54;;;;;;;3.83;2.40;;;;;;;11.58;68.43;100567.50;8536771;33;20305;-72
2022/05/12 06:39:01;;;;;;;3.50;2.05;;;;;;;11.59;67.66;100569.19;8516222;33;20463;-72
2022/05/12 06:44:06;;;;;;;6.10;2.97;;;;;;;11.97;67.87;100577.78;8533320;33;20413;-72
2022/05/12 06:49:10;;;;;;;5.90;2.20;;;;;;;12.35;66.70;100575.41;8525586;33;20203;-72
2022/05/12 06:54:13;;;;;;;4.03;2.67;;;;;;;11.80;66.55;100580.03;8527835;33;20307;-72
2022/05/12 06:59:18;;;;;;;5.32;3.00;;;;;;;12.54;64.95;100587.31;8535091;33;20472;-72
2022/05/12 07:04:21;;;;;;;4.43;2.83;;;;;;;12.17;63.89;100593.94;8518159;33;20193;-72
2022/05/12 07:09:25;;;;;;;7.65;3.10;;;;;;;12.11;67.11;100607.06;8555205;33;21006;-72
2022/05/12 07:14:30;;;;;;;4.38;3.15;;;;;;;12.67;64.42;100597.84;8515740;33;20990;-72
2022/05/12 07:19:34;;;;;;;5.45;3.53;;;;;;;13.37;64.05;100609.72;8519072;33;20429;-72
2022/05/12 07:29:58;;;;;;;7.53;3.63;;;;;;;13.45;62.52;100626.09;8553356;33;20250;-72
2022/05/12 07:35:01;;;;;;;7.05;4.20;;;;;;;13.05;63.67;100635.84;8545414;33;20436;-72
2022/05/12 07:40:06;;;;;;;9.20;4.25;;;;;;;12.35;64.43;100629.28;8520809;33;20970;-73
2022/05/12 07:45:12;;;;;;;8.90;4.25;;;;;;;12.72;62.54;100641.44;8569379;33;20623;-73
2022/05/12 07:50:15;;;;;;;10.77;4.13;;;;;;;13.22;61.89;100645.13;8567234;33;20458;-72
2022/05/12 07:55:19;;;;;;;6.82;4.20;;;;;;;13.61;60.43;100656.09;8556584;33;20411;-72
2022/05/12 08:00:23;;;;;;;5.07;3.97;;;;;;;13.74;61.45;100652.28;8527601;33;20241;-72
2022/05/12 08:05:27;;;;;;;5.90;4.20;;;;;;;14.85;57.70;100656.47;8573079;33;20574;-72
2022/05/12 08:10:30;;;;;;;9.05;3.88;;;;;;;14.26;58.62;100655.63;8594520;33;20421;-72
2022/05/12 08:15:34;;;;;;;10.80;3.38;;;;;;;13.38;58.92;100665.38;8591067;33;21059;-72
2022/05/12 08:20:38;;;;;;;5.18;3.25;;;;;;;14.75;57.55;100662.72;8579788;33;20854;-72
2022/05/12 08:25:43;;;;;;;5.22;3.35;;;;;;;15.82;53.12;100667.78;8568557;33;20254;-72
2022/05/12 08:30:49;;;;;;;3.92;2.83;;;;;;;15.01;55.57;100670.25;8525003;33;20191;-72
2022/05/12 08:35:53;;;;;;;5.45;3.20;;;;;;;15.33;55.10;100682.53;8536860;33;20472;-72
2022/05/12 08:41:12;;;;;;;3.97;2.97;;;;;;;14.48;55.71;100668.03;8565842;33;20696;-72
2022/05/12 08:46:22;;;;;;;4.10;2.55;;;;;;;15.25;54.38;100677.88;8524532;33;20250;-73
2022/05/12 08:51:25;;;;;;;5.28;2.60;;;;;;;14.59;55.00;100678.72;8545076;33;20286;-72
2022/05/12 08:56:29;;;;;;;9.13;3.00;;;;;;;15.20;54.75;100670.19;8539657;33;20209;-73
2022/05/12 09:01:42;;;;;;;3.53;2.92;;;;;;;15.18;54.08;100665.91;8527725;33;20244;-72
2022/05/12 09:06:57;;;;;;;6.38;3.58;;;;;;;15.81;53.08;100681.50;8520056;33;20742;-72
2022/05/12 09:12:13;;;;;;;5.55;3.58;;;;;;;16.67;53.51;100673.72;8563417;33;20470;-72
2022/05/12 09:17:23;;;;;;;7.82;3.78;;;;;;;17.03;50.99;100671.81;8518625;33;20148;-73
2022/05/12 09:22:29;;;;;;;6.22;4.18;;;;;;;15.70;49.34;100680.69;8531963;33;20159;-72
2022/05/12 09:27:36;;;;;;;4.07;3.22;;;;;;;15.66;49.62;100692.81;8515392;33;20568;-72
2022/05/12 09:32:41;;;;;;;4.95;3.90;;;;;;;15.83;51.33;100688.47;8569603;33;20148;-73
2022/05/12 09:37:44;;;;;;;7.22;4.40;;;;;;;15.52;52.00;100682.47;8565222;33;20517;-72
2022/05/12 09:42:50;;;;;;;5.03;3.53;;;;;;;16.80;48.29;100681.47;8551762;33;20553;-72
2022/05/12 09:53:31;;;;;;;4.03;3.58;;;;;;;16.52;47.94;100673.44;8788560;33;20827;-72
2022/05/12 09:58:38;;;;;;;5.90;4.05;;;;;;;17.17;47.22;100670.41;8797170;33;20502;-72
2022/05/12 10:09:31;;;;;;;8.45;4.60;;;;;;;15.90;50.64;100685.97;8761747;33;20249;-72
2022/05/12 10:14:46;;;;;;;6.47;3.40;;;;;;;16.27;49.30;100679.66;8801284;33;20177;-72
2022/05/12 10:19:49;;;;;;;3.47;3.17;;;;;;;17.73;46.62;100683.56;8813624;33;20237;-72
2022/05/12 10:25:28;;;;;;;4.72;3.65;;;;;;;17.46;45.83;100671.88;8828023;33;20540;-72
2022/05/12 10:30:41;;;;;;;5.03;4.05;;;;;;;17.35;46.84;100678.44;8821263;33;20353;-73
2022/05/12 10:35:50;;;;;;;3.13;2.80;;;;;;;17.62;44.93;100677.41;8812754;33;20212;-72
2022/05/12 10:41:02;;;;;;;6.85;3.15;;;;;;;17.82;43.91;100664.38;8802830;33;20239;-72
2022/05/12 10:46:13;;;;;;;5.20;3.60;;;;;;;17.90;42.90;100658.97;8789075;33;20192;-73
2022/05/12 10:51:30;;;;;;;4.53;3.45;;;;;;;19.02;43.10;100664.88;8825750;33;20258;-73
2022/05/12 10:56:43;;;;;;;5.32;3.33;;;;;;;17.23;45.44;100672.47;8826696;33;20194;-72
2022/05/12 11:01:51;;;;;;;4.47;4.00;;;;;;;18.38;42.71;100664.72;8791962;33;21019;-72
2022/05/12 11:07:05;;;;;;;4.13;3.63;;;;;;;17.95;44.59;100666.66;8781012;33;20189;-73
2022/05/12 11:12:28;;;;;;;5.45;3.75;;;;;;;16.27;47.52;100668.81;8789538;33;20151;-72
2022/05/12 11:17:36;;;;;;;5.85;3.65;;;;;;;16.43;47.21;100666.25;8758432;33;20250;-72
2022/05/12 11:22:48;;;;;;;5.10;3.47;;;;;;;18.57;45.67;100664.38;8755204;33;20560;-72
2022/05/12 11:33:27;;;;;;;6.30;4.80;;;;;;;18.79;44.45;100662.88;8782001;33;20152;-73
2022/05/12 11:38:53;;;;;;;4.57;3.42;;;;;;;17.65;45.01;100663.47;8771885;33;20221;-72
2022/05/12 11:44:26;;;;;;;4.75;3.78;;;;;;;17.12;45.26;100664.56;8755244;33;20146;-72
2022/05/12 11:49:51;;;;;;;5.10;3.60;;;;;;;16.63;46.96;100661.50;8792101;33;20148;-72
2022/05/12 11:54:58;;;;;;;5.78;3.60;;;;;;;17.50;46.31;100657.00;8815630;33;20171;-72
2022/05/12 12:00:09;;;;;;;3.95;3.45;;;;;;;18.90;43.38;100648.06;8773665;33;20319;-73
2022/05/12 12:06:01;;;;;;;5.40;3.50;;;;;;;17.74;44.60;100649.94;8769719;33;20873;-72
2022/05/12 12:11:25;;;;;;;3.40;3.05;;;;;;;17.10;45.06;100653.00;8753895;33;20140;-72
2022/05/12 12:17:05;;;;;;;4.82;3.00;;;;;;;17.52;45.35;100640.50;8781902;33;20238;-72
2022/05/12 12:22:24;;;;;;;3.20;2.83;;;;;;;19.48;40.66;100650.63;8764204;33;20583;-73
2022/05/12 12:28:02;;;;;;;4.10;2.60;;;;;;;20.02;40.31;100626.19;8774804;33;20142;-73
2022/05/12 12:33:20;;;;;;;5.50;3.28;;;;;;;20.42;39.23;100627.78;8764819;33;20575;-73
2022/05/12 12:39:07;;;;;;;6.53;3.30;;;;;;;20.34;38.02;100616.94;8800402;33;20676;-73
2022/05/12 12:44:19;;;;;;;4.32;3.17;;;;;;;21.34;36.51;100621.28;8805072;33;20201;-73
2022/05/12 12:49:28;;;;;;;3.53;2.97;;;;;;;19.39;38.41;100634.31;8761968;33;20151;-72
2022/05/12 13:00:01;;;;;;;5.03;3.03;;;;;;;19.56;39.61;100624.25;8764281;33;20159;-72
2022/05/12 13:05:10;;;;;;;6.07;3.10;;;;;;;19.46;39.91;100613.50;8758121;33;20675;-73
2022/05/12 13:10:17;;;;;;;4.05;2.95;;;;;;;19.76;37.97;100605.56;8753019;33;20156;-73
2022/05/12 13:15:24;;;;;;;6.13;3.80;;;;;;;20.89;35.62;100588.44;8763599;33;21374;-72
2022/05/12 13:20:33;;;;;;;4.20;2.80;;;;;;;21.32;37.21;100604.22;8775427;33;20166;-73
2022/05/12 13:25:40;;;;;;;3.83;2.67;;;;;;;20.33;37.25;100599.75;8785791;33;20144;-73
2022/05/12 13:30:48;;;;;;;3.75;3.10;;;;;;;19.83;37.03;100614.72;8787067;33;20173;-73
2022/05/12 13:35:59;;;;;;;4.20;2.88;;;;;;;19.74;36.67;100601.31;8749875;33;20151;-73
2022/05/12 13:41:04;;;;;;;3.35;2.47;;;;;;;20.28;36.45;100590.38;8760054;33;20147;-73
2022/05/12 13:46:21;;;;;;;3.88;2.70;;;;;;;20.39;35.49;100581.78;8767228;33;20496;-73
2022/05/12 13:51:51;;;;;;;4.00;2.80;;;;;;;20.04;36.44;100586.78;8772423;33;20215;-73
2022/05/12 13:57:23;;;;;;;3.65;3.33;;;;;;;20.09;36.00;100578.94;8790669;33;20432;-72
2022/05/12 14:02:33;;;;;;;5.00;3.08;;;;;;;20.99;34.09;100574.53;8751834;33;20186;-73
2022/05/12 14:07:38;;;;;;;3.13;2.65;;;;;;;21.68;35.15;100585.13;8755523;33;20159;-73
2022/05/12 14:19:13;;;;;;;4.28;2.63;;;;;;;20.75;34.62;100576.47;8770456;33;20248;-73
2022/05/12 14:23:26;;;;;;;5.10;3.13;;;;;;;20.15;34.14;100571.03;8763386;33;20171;-73
2022/05/12 14:28:30;;;;;;;6.22;3.40;;;;;;;19.77;37.59;100565.53;8803700;33;20242;-73
2022/05/12 14:33:34;;;;;;;6.93;3.15;;;;;;;19.54;36.45;100566.31;8799426;33;20508;-72
2022/05/12 14:38:38;;;;;;;3.97;3.50;;;;;;;20.72;35.66;100552.28;8785083;33;20712;-73
2022/05/12 14:43:42;;;;;;;5.63;3.70;;;;;;;21.72;34.43;100548.16;8782391;33;20186;-73
2022/05/12 14:48:46;;;;;;;5.90;3.70;;;;;;;20.61;35.46;100551.91;8770173;33;20189;-72
2022/05/12 14:53:51;;;;;;;5.47;4.30;;;;;;;20.01;37.20;100545.44;8759946;33;20183;-73
2022/05/12 14:58:54;;;;;;;5.82;4.03;;;;;;;20.66;36.39;100544.03;8752564;33;20140;-73
2022/05/12 15:03:59;;;;;;;6.45;4.20;;;;;;;20.66;34.91;100536.69;8768414;33;20265;-73
2022/05/12 15:09:04;;;;;;;5.57;4.57;;;;;;;20.14;36.46;100542.94;8779010;33;20213;-73
2022/05/12 15:14:07;;;;;;;6.38;5.20;;;;;;;19.67;37.85;100543.97;8790801;33;20147;-73
2022/05/12 15:19:11;;;;;;;6.65;5.07;;;;;;;20.00;37.57;100547.31;8799525;33;20506;-73
2022/05/12 15:24:15;;;;;;;8.75;5.85;;;;;;;18.82;38.08;100541.94;8803044;33;20598;-73
2022/05/12 15:29:19;;;;;;;9.35;5.13;;;;;;;18.67;39.01;100549.94;8798254;33;20159;-73
2022/05/12 15:34:22;;;;;;;7.90;5.18;;;;;;;18.80;38.57;100535.81;8788105;33;20597;-72
2022/05/12 15:39:26;;;;;;;7.07;5.07;;;;;;;18.71;39.54;100537.69;8781427;33;20186;-73
2022/05/12 15:44:29;;;;;;;8.85;5.82;;;;;;;18.56;39.74;100533.97;8795211;33;20854;-73
2022/05/12 15:49:35;;;;;;;7.70;5.93;;;;;;;18.92;39.40;100539.00;8791111;33;20147;-72
2022/05/12 15:54:41;;;;;;;8.23;6.13;;;;;;;19.47;38.34;100529.91;8755294;33;20148;-72
2022/05/12 15:59:47;;;;;;;9.35;5.85;;;;;;;18.85;38.87;100530.72;8769578;33;20189;-72
2022/05/12 16:04:50;;;;;;;9.57;5.85;;;;;;;18.70;39.24;100538.69;8781434;33;20284;-72
2022/05/12 16:09:54;;;;;;;8.35;5.35;;;;;;;18.79;40.75;100529.53;8793087;33;20976;-72
2022/05/12 16:15:00;;;;;;;8.60;6.03;;;;;;;19.87;38.43;100519.81;8793945;33;20148;-71
2022/05/12 16:20:05;;;;;;;7.80;6.70;;;;;;;20.17;37.87;100522.63;8755673;33;20152;-72
2022/05/12 16:25:11;;;;;;;8.75;6.03;;;;;;;19.05;38.00;100519.41;8766320;33;20136;-72
2022/05/12 16:30:19;;;;;;;9.25;5.90;;;;;;;18.50;39.95;100529.22;8777065;33;20224;-71
2022/05/12 16:35:23;;;;;;;8.68;5.53;;;;;;;19.15;38.19;100531.78;8787831;33;20524;-72
2022/05/12 16:40:28;;;;;;;7.45;5.88;;;;;;;18.89;38.24;100528.47;8799318;33;20220;-72
2022/05/12 16:45:32;;;;;;;10.60;6.63;;;;;;;19.14;38.55;100521.94;8806261;33;20465;-73
2022/05/12 16:50:35;;;;;;;9.50;6.03;;;;;;;18.74;38.07;100520.16;8796526;33;20341;-72
2022/05/12 16:55:40;;;;;;;9.43;6.10;;;;;;;18.86;39.22;100502.47;8777798;33;20152;-72
2022/05/12 17:00:44;;;;;;;7.20;5.38;;;;;;;20.07;36.87;100506.50;8784966;33;20151;-72
2022/05/12 17:05:47;;;;;;;9.80;6.30;;;;;;;21.20;35.42;100505.50;8783862;33;20152;-72
2022/05/12 17:10:53;;;;;;;7.43;5.68;;;;;;;19.52;37.82;100510.31;8753058;33;20276;-72
2022/05/12 17:15:56;;;;;;;9.68;6.03;;;;;;;18.78;39.06;100514.22;8799762;33;20148;-73
2022/05/12 17:20:59;;;;;;;11.07;5.75;;;;;;;17.84;39.85;100504.75;8786708;33;20152;-71
2022/05/12 17:26:03;;;;;;;9.13;5.25;;;;;;;17.53;40.35;100504.56;8780106;33;20620;-72
2022/05/12 17:31:06;;;;;;;9.43;5.63;;;;;;;18.53;38.95;100512.56;8773184;33;20147;-73
2022/05/12 17:36:11;;;;;;;11.00;5.47;;;;;;;18.34;39.91;100509.19;8753734;33;20193;-73
2022/05/12 17:41:16;;;;;;;8.60;6.05;;;;;;;17.95;40.58;100502.75;8754610;33;20767;-73
2022/05/12 17:46:19;;;;;;;7.97;5.53;;;;;;;18.60;40.39;100507.28;8776913;33;20155;-73
2022/05/12 17:51:22;;;;;;;10.77;5.78;;;;;;;19.50;38.93;100502.34;8780194;33;20987;-72
2022/05/12 17:56:27;;;;;;;7.38;5.45;;;;;;;20.23;36.90;100497.34;8764807;33;20592;-72
2022/05/12 18:01:30;;;;;;;8.32;5.78;;;;;;;18.88;38.43;100499.56;8798289;33;20151;-72
2022/05/12 18:06:34;;;;;;;11.05;5.95;;;;;;;18.40;40.03;100512.25;8804321;33;20183;-72
2022/05/12 18:11:40;;;;;;;6.93;5.22;;;;;;;17.99;40.67;100499.56;8795188;33;20245;-72
2022/05/12 18:16:43;;;;;;;8.13;5.55;;;;;;;17.60;41.20;100499.31;8777130;33;20151;-72
2022/05/12 18:21:46;;;;;;;8.40;5.82;;;;;;;17.59;41.54;100503.06;8788916;33;20239;-72
2022/05/12 18:26:51;;;;;;;7.15;4.97;;;;;;;17.19;41.82;100500.06;8799481;33;20661;-72
2022/05/12 18:31:54;;;;;;;7.18;4.68;;;;;;;17.22;42.24;100498.88;8808630;33;20564;-72
2022/05/12 18:36:59;;;;;;;8.80;4.90;;;;;;;17.15;43.21;100500.56;8802668;33;20632;-73
2022/05/12 18:42:04;;;;;;;7.10;4.80;;;;;;;17.03;43.46;100502.69;8769781;33;20771;-72
2022/05/12 18:47:08;;;;;;;6.63;4.97;;;;;;;16.89;44.15;100506.84;8783851;33;20141;-72
2022/05/12 18:52:13;;;;;;;8.65;5.47;;;;;;;16.69;44.85;100511.69;8765312;33;20207;-72
2022/05/12 18:57:17;;;;;;;7.15;5.13;;;;;;;16.38;45.45;100519.47;8771977;33;20146;-72
2022/05/12 19:02:21;;;;;;;6.20;5.13;;;;;;;16.28;46.10;100526.84;8793027;33;20148;-73
2022/05/12 19:07:27;;;;;;;7.55;5.18;;;;;;;16.22;47.32;100520.16;8769273;33;20645;-73
2022/05/12 19:12:32;;;;;;;10.50;5.97;;;;;;;16.09;48.26;100528.69;8777401;33;20224;-73
2022/05/12 19:17:43;;;;;;;6.05;5.18;;;;;;;15.89;48.83;100528.03;8790260;33;20652;-73
2022/05/12 19:22:46;;;;;;;7.82;5.05;;;;;;;15.64;47.29;100543.19;8802257;33;20718;-73
2022/05/12 19:27:51;;;;;;;6.93;5.55;;;;;;;15.42;48.10;100546.34;8805157;33;20232;-72
2022/05/12 19:32:54;;;;;;;6.43;5.72;;;;;;;15.37;47.51;100563.03;8765658;33;20144;-72
2022/05/12 19:37:59;;;;;;;8.32;5.40;;;;;;;15.23;47.55;100560.81;8779188;33;20253;-73
2022/05/12 19:43:06;;;;;;;9.60;5.88;;;;;;;15.14;47.46;100562.56;8784948;33;20151;-73
2022/05/12 19:48:10;;;;;;;8.63;5.10;;;;;;;15.17;48.01;100561.41;8785823;33;20262;-73
2022/05/12 19:53:13;;;;;;;9.43;5.22;;;;;;;15.05;48.48;100566.13;8765300;33;20167;-72
2022/05/12 19:58:18;;;;;;;7.75;5.15;;;;;;;14.91;49.36;100553.94;8767987;33;20469;-73
2022/05/12 20:03:23;;;;;;;6.20;5.20;;;;;;;14.85;49.78;100561.81;8777208;33;20624;-73
2022/05/12 20:08:26;;;;;;;9.75;6.18;;;;;;;14.53;48.29;100563.03;8781321;33;20229;-72
2022/05/12 20:13:31;;;;;;;7.75;6.00;;;;;;;14.48;47.69;100560.78;8766996;33;20270;-73
2022/05/12 20:18:34;;;;;;;11.13;6.43;;;;;;;14.66;47.18;100582.50;8761125;33;20147;-72
2022/05/12 20:23:37;;;;;;;7.05;5.80;;;;;;;14.54;47.48;100571.00;8797776;33;20317;-73
2022/05/12 20:28:42;;;;;;;7.25;6.28;;;;;;;14.36;48.67;100570.84;8765136;33;20275;-73
2022/05/12 20:33:45;;;;;;;11.98;6.22;;;;;;;13.84;48.77;100567.63;8776478;33;20159;-73
2022/05/12 20:38:48;;;;;;;8.55;7.03;;;;;;;14.25;46.93;100560.22;8775720;33;20282;-73
2022/05/12 20:43:53;;;;;;;8.85;6.90;;;;;;;14.32;47.59;100564.06;8763151;33;20229;-72
2022/05/12 20:48:56;;;;;;;7.85;6.78;;;;;;;14.29;47.44;100564.34;8773780;33;20237;-72
2022/05/12 20:53:59;;;;;;;13.20;7.28;;;;;;;14.41;46.99;100558.81;8785392;33;20158;-72
2022/05/12 20:59:05;;;;;;;12.77;6.93;;;;;;;14.30;47.71;100560.63;8775610;33;20144;-72
2022/05/12 21:04:09;;;;;;;9.18;6.00;;;;;;;14.21;47.92;100566.91;8776040;33;20265;-74
2022/05/12 21:09:12;;;;;;;9.13;7.18;;;;;;;14.08;48.29;100564.50;8767596;33;20188;-72
2022/05/12 21:14:16;;;;;;;9.32;6.70;;;;;;;14.07;48.51;100562.81;8761987;33;20669;-72
2022/05/12 21:19:19;;;;;;;8.77;6.65;;;;;;;14.08;48.28;100567.19;8766803;33;20438;-72
2022/05/12 21:24:22;;;;;;;9.40;6.97;;;;;;;14.09;48.74;100573.44;8781067;33;20442;-72
2022/05/12 21:29:27;;;;;;;8.88;6.88;;;;;;;14.15;48.52;100567.47;8774377;33;20132;-72
2022/05/12 21:34:30;;;;;;;11.77;6.97;;;;;;;14.14;49.04;100566.63;8774227;33;20208;-72
2022/05/12 21:39:33;;;;;;;9.73;7.25;;;;;;;13.97;49.58;100570.03;8762691;33;20266;-72
2022/05/12 21:44:38;;;;;;;9.27;7.05;;;;;;;13.84;49.89;100564.06;8762337;33;20151;-71
2022/05/12 21:49:41;;;;;;;12.27;7.35;;;;;;;13.76;50.13;100562.06;8771230;33;20265;-73
2022/05/12 21:54:44;;;;;;;12.10;6.97;;;;;;;13.74;50.24;100566.78;8779326;33;20261;-72
2022/05/12 22:05:10;;;;;;;14.20;7.95;;;;;;;13.53;50.88;100566.88;8755461;33;20148;-72
2022/05/12 22:10:13;;;;;;;12.30;8.57;;;;;;;13.46;51.29;100560.31;8752913;33;20148;-72
2022/05/12 22:15:18;;;;;;;13.25;8.30;;;;;;;13.49;51.27;100551.94;8759153;33;20144;-72
2022/05/12 22:20:21;;;;;;;13.32;8.40;;;;;;;13.49;51.36;100558.22;8775333;33;20144;-72
2022/05/12 22:25:24;;;;;;;12.38;8.75;;;;;;;13.46;51.54;100554.91;8769953;33;20983;-72
2022/05/12 22:30:29;;;;;;;13.93;8.10;;;;;;;13.47;52.20;100562.03;8757599;33;20664;-72
2022/05/12 22:35:33;;;;;;;10.20;9.07;;;;;;;13.49;52.17;100560.03;8750154;33;20735;-72
2022/05/12 22:40:36;;;;;;;11.70;8.50;;;;;;;13.23;53.25;100570.44;8781969;33;20135;-72
2022/05/12 22:45:41;;;;;;;10.40;8.20;;;;;;;13.01;54.59;100587.69;8765432;33;20684;-72
2022/05/12 22:50:44;;;;;;;13.15;8.77;;;;;;;12.90;55.67;100590.47;8772313;33;20548;-71
2022/05/12 22:55:47;;;;;;;11.38;8.65;;;;;;;13.00;54.67;100583.25;8760462;33;20193;-71
2022/05/12 23:00:51;;;;;;;14.75;8.88;;;;;;;12.80;55.28;100585.03;8758589;33;20151;-72
2022/05/12 23:05:54;;;;;;;10.40;7.88;;;;;;;12.91;54.92;100581.38;8803920;33;20167;-72
2022/05/12 23:10:57;;;;;;;10.82;8.60;;;;;;;12.94;54.11;100583.81;8790592;33;20238;-72
2022/05/12 23:16:01;;;;;;;10.40;7.85;;;;;;;12.94;53.93;100575.72;8780366;33;20155;-72
2022/05/12 23:26:25;;;;;;;11.07;9.13;;;;;;;13.11;54.39;100572.41;8757572;33;20147;-72
2022/05/12 23:31:29;;;;;;;11.38;9.07;;;;;;;13.06;54.57;100582.75;8783283;33;20530;-72
2022/05/12 23:36:33;;;;;;;10.23;8.02;;;;;;;12.88;54.46;100576.28;8762800;33;20125;-72
2022/05/12 23:41:39;;;;;;;11.27;7.75;;;;;;;12.85;54.69;100574.69;8777171;33;20176;-72
2022/05/12 23:46:43;;;;;;;9.60;7.93;;;;;;;12.98;53.68;100575.31;8769045;33;20239;-72
2022/05/12 23:51:47;;;;;;;11.95;9.13;;;;;;;13.13;54.40;100574.94;8761423;33;20163;-72
2022/05/12 23:56:49;;;;;;;13.43;8.25;;;;;;;13.04;53.34;100569.38;8753440;33;20644;-72
